createdAt,value
2023-01-07T00:00:18.794Z,99.99
2023-01-07T00:01:19.110Z,99.99
2023-01-07T00:02:19.496Z,99.99
2023-01-07T00:03:20.690Z,99.99
2023-01-07T00:04:21.596Z,99.99
2023-01-07T00:05:21.828Z,99.99
2023-01-07T00:06:22.376Z,99.99
2023-01-07T00:07:23.004Z,99.99
2023-01-07T00:08:23.634Z,99.99
2023-01-07T00:09:24.819Z,99.99
2023-01-07T00:10:25.458Z,99.99
2023-01-07T00:11:26.194Z,99.99
2023-01-07T00:12:26.429Z,99.99
2023-01-07T00:13:26.911Z,99.99
2023-01-07T00:14:27.119Z,99.99
2023-01-07T00:15:28.353Z,99.99
2023-01-07T00:16:28.711Z,99.99
2023-01-07T00:17:29.388Z,99.99
2023-01-07T00:18:29.725Z,99.99
2023-01-07T00:19:30.370Z,99.99
2023-01-07T00:20:31.736Z,99.99
2023-01-07T00:21:32.721Z,99.99
2023-01-07T00:22:33.075Z,99.99
2023-01-07T00:23:33.059Z,99.99
2023-01-07T00:24:34.395Z,99.99
2023-01-07T00:25:35.024Z,99.99
2023-01-07T00:26:36.043Z,99.99
2023-01-07T00:27:35.950Z,99.99
2023-01-07T00:28:36.597Z,99.99
2023-01-07T00:29:37.090Z,99.99
2023-01-07T00:30:37.050Z,99.99
2023-01-07T00:31:38.088Z,99.99
2023-01-07T00:32:38.720Z,99.99
2023-01-07T00:33:39.740Z,99.99
2023-01-07T00:34:40.657Z,99.99
2023-01-07T00:35:40.633Z,99.99
2023-01-07T00:36:41.140Z,99.99
2023-01-07T00:37:41.478Z,99.99
2023-01-07T00:38:41.686Z,99.99
2023-01-07T00:39:42.109Z,99.99
2023-01-07T00:40:42.657Z,99.99
2023-01-07T00:41:43.194Z,99.99
2023-01-07T00:42:43.686Z,99.99
2023-01-07T00:43:44.373Z,99.99
2023-01-07T00:44:44.885Z,99.99
2023-01-07T00:45:45.625Z,99.99
2023-01-07T00:46:46.398Z,99.99
2023-01-07T00:47:47.349Z,99.99
2023-01-07T00:48:48.126Z,99.99
2023-01-07T00:49:48.344Z,99.99
2023-01-07T00:50:48.834Z,99.99
2023-01-07T00:51:49.367Z,99.99
2023-01-07T00:52:49.401Z,99.99
2023-01-07T00:53:50.325Z,99.99
2023-01-07T00:54:50.656Z,99.99
2023-01-07T00:55:51.165Z,99.99
2023-01-07T00:56:51.396Z,99.99
2023-01-07T00:57:51.690Z,99.99
2023-01-07T00:58:52.300Z,99.99
2023-01-07T00:59:52.931Z,99.99
2023-01-07T01:00:53.796Z,99.99
2023-01-07T01:01:53.919Z,99.99
2023-01-07T01:02:54.393Z,99.99
2023-01-07T01:03:55.185Z,99.99
2023-01-07T01:04:55.107Z,99.99
2023-01-07T01:05:55.314Z,99.99
2023-01-07T01:06:55.968Z,99.99
2023-01-07T01:07:56.013Z,99.99
2023-01-07T01:08:56.942Z,99.99
2023-01-07T01:09:57.266Z,99.99
2023-01-07T01:10:58.352Z,99.99
2023-01-07T01:11:58.056Z,99.99
2023-01-07T01:12:58.599Z,99.99
2023-01-07T01:13:58.820Z,99.99
2023-01-07T01:14:59.458Z,99.99
2023-01-07T01:15:59.886Z,99.99
2023-01-07T01:17:00.035Z,99.99
2023-01-07T01:18:01.094Z,99.99
2023-01-07T01:19:02.405Z,99.99
2023-01-07T01:20:03.355Z,99.99
2023-01-07T01:21:03.561Z,99.99
2023-01-07T01:22:04.151Z,99.99
2023-01-07T01:23:04.917Z,99.99
2023-01-07T01:24:06.113Z,99.99
2023-01-07T01:25:06.740Z,99.99
2023-01-07T01:26:06.689Z,99.99
2023-01-07T01:27:07.921Z,99.99
2023-01-07T01:28:08.118Z,99.99
2023-01-07T01:29:09.313Z,99.99
2023-01-07T01:30:10.003Z,99.99
2023-01-07T01:31:11.492Z,99.99
2023-01-07T01:32:11.065Z,99.99
2023-01-07T01:33:12.100Z,99.99
2023-01-07T01:34:13.138Z,99.99
2023-01-07T01:35:13.822Z,99.99
2023-01-07T01:36:14.741Z,99.99
2023-01-07T01:37:14.950Z,99.99
2023-01-07T01:38:15.268Z,99.99
2023-01-07T01:39:16.199Z,99.99
2023-01-07T01:40:16.957Z,99.99
2023-01-07T01:41:17.890Z,99.99
2023-01-07T01:42:18.192Z,99.99
2023-01-07T01:43:18.400Z,99.99
2023-01-07T01:44:18.885Z,99.99
2023-01-07T01:45:19.402Z,99.99
2023-01-07T01:46:19.788Z,99.99
2023-01-07T01:47:20.241Z,99.99
2023-01-07T01:48:20.865Z,99.99
2023-01-07T01:49:21.943Z,99.99
2023-01-07T01:50:22.159Z,99.99
2023-01-07T01:51:22.366Z,99.99
2023-01-07T01:52:23.095Z,99.99
2023-01-07T01:53:23.428Z,99.99
2023-01-07T01:54:23.352Z,99.99
2023-01-07T01:55:24.587Z,99.99
2023-01-07T01:56:25.509Z,99.99
2023-01-07T01:57:26.012Z,99.99
2023-01-07T01:58:26.234Z,99.99
2023-01-07T01:59:27.156Z,99.99
2023-01-07T02:00:27.516Z,99.99
2023-01-07T02:01:28.665Z,99.99
2023-01-07T02:02:28.914Z,99.99
2023-01-07T02:03:29.739Z,99.99
2023-01-07T02:04:30.090Z,99.99
2023-01-07T02:05:30.306Z,99.99
2023-01-07T02:06:30.786Z,99.99
2023-01-07T02:07:31.704Z,99.99
2023-01-07T02:08:32.079Z,99.99
2023-01-07T02:09:32.715Z,99.99
2023-01-07T02:10:33.743Z,99.99
2023-01-07T02:11:34.669Z,99.99
2023-01-07T02:12:35.741Z,99.99
2023-01-07T02:13:36.673Z,99.99
2023-01-07T02:14:36.856Z,99.99
2023-01-07T02:15:36.808Z,99.99
2023-01-07T02:16:37.617Z,99.99
2023-01-07T02:17:38.336Z,99.99
2023-01-07T02:18:38.576Z,99.99
2023-01-07T02:19:39.623Z,99.99
2023-01-07T02:20:39.576Z,99.99
2023-01-07T02:21:40.491Z,99.99
2023-01-07T02:22:40.716Z,99.99
2023-01-07T02:23:41.057Z,99.99
2023-01-07T02:24:41.715Z,99.99
2023-01-07T02:25:42.749Z,99.99
2023-01-07T02:26:43.677Z,99.99
2023-01-07T02:27:44.320Z,99.99
2023-01-07T02:28:45.523Z,99.99
2023-01-07T02:29:45.893Z,99.99
2023-01-07T02:30:46.534Z,99.99
2023-01-07T02:31:47.037Z,99.99
2023-01-07T02:32:47.821Z,99.99
2023-01-07T02:33:48.856Z,99.99
2023-01-07T02:34:49.460Z,99.99
2023-01-07T02:35:49.420Z,99.99
2023-01-07T02:36:50.375Z,99.99
2023-01-07T02:37:50.860Z,99.99
2023-01-07T02:38:51.247Z,99.99
2023-01-07T02:39:51.503Z,99.99
2023-01-07T02:40:51.726Z,99.99
2023-01-07T02:41:51.940Z,99.99
2023-01-07T02:42:52.635Z,99.99
2023-01-07T02:43:52.587Z,99.99
2023-01-07T02:44:53.538Z,99.99
2023-01-07T02:45:53.655Z,99.99
2023-01-07T02:46:54.283Z,99.99
2023-01-07T02:47:55.205Z,99.99
2023-01-07T02:48:55.829Z,99.99
2023-01-07T02:49:56.171Z,99.99
2023-01-07T02:50:56.364Z,99.99
2023-01-07T02:51:56.576Z,99.99
2023-01-07T02:52:56.858Z,99.99
2023-01-07T02:53:57.429Z,99.99
2023-01-07T02:54:58.654Z,99.99
2023-01-07T02:55:58.977Z,99.99
2023-01-07T02:56:59.205Z,99.99
2023-01-07T02:58:00.452Z,99.99
2023-01-07T02:59:00.931Z,99.99
2023-01-07T03:00:01.131Z,99.99
2023-01-07T03:01:01.513Z,99.99
2023-01-07T03:02:02.484Z,99.99
2023-01-07T03:03:02.439Z,99.99
2023-01-07T03:04:03.162Z,99.99
2023-01-07T03:05:03.506Z,99.99
2023-01-07T03:06:03.737Z,99.99
2023-01-07T03:07:04.657Z,99.99
2023-01-07T03:08:04.580Z,99.99
2023-01-07T03:09:04.901Z,99.99
2023-01-07T03:10:05.830Z,99.99
2023-01-07T03:11:05.928Z,99.99
2023-01-07T03:12:06.612Z,99.99
2023-01-07T03:13:07.618Z,99.99
2023-01-07T03:14:08.260Z,99.99
2023-01-07T03:15:08.467Z,99.99
2023-01-07T03:16:09.403Z,99.99
2023-01-07T03:17:09.427Z,99.99
2023-01-07T03:18:10.030Z,99.99
2023-01-07T03:19:11.086Z,99.99
2023-01-07T03:20:11.897Z,99.99
2023-01-07T03:21:12.837Z,99.99
2023-01-07T03:22:13.770Z,99.99
2023-01-07T03:23:14.591Z,99.99
2023-01-07T03:24:15.052Z,99.99
2023-01-07T03:25:15.261Z,99.99
2023-01-07T03:26:16.310Z,99.99
2023-01-07T03:27:16.222Z,99.99
2023-01-07T03:28:16.764Z,99.99
2023-01-07T03:29:16.952Z,99.99
2023-01-07T03:30:17.873Z,99.99
2023-01-07T03:31:18.542Z,99.99
2023-01-07T03:32:18.740Z,99.99
2023-01-07T03:33:19.479Z,99.99
2023-01-07T03:34:20.226Z,99.99
2023-01-07T03:35:20.539Z,99.99
2023-01-07T03:36:21.177Z,99.99
2023-01-07T03:37:22.112Z,99.99
2023-01-07T03:38:22.351Z,99.99
2023-01-07T03:39:22.719Z,99.99
2023-01-07T03:40:23.640Z,99.99
2023-01-07T03:41:23.950Z,99.99
2023-01-07T03:42:24.897Z,99.99
2023-01-07T03:43:25.086Z,99.99
2023-01-07T03:44:25.739Z,99.99
2023-01-07T03:45:27.039Z,99.99
2023-01-07T03:46:27.761Z,99.99
2023-01-07T03:47:28.838Z,99.99
2023-01-07T03:48:29.747Z,99.99
2023-01-07T03:49:29.795Z,99.99
2023-01-07T03:50:30.843Z,99.99
2023-01-07T03:51:30.769Z,99.99
2023-01-07T03:52:30.970Z,99.99
2023-01-07T03:53:31.999Z,99.99
2023-01-07T03:54:32.052Z,99.99
2023-01-07T03:55:32.251Z,99.99
2023-01-07T03:56:32.565Z,99.99
2023-01-07T03:57:33.796Z,99.99
2023-01-07T03:58:34.716Z,99.99
2023-01-07T03:59:34.922Z,99.99
2023-01-07T04:00:35.123Z,99.99
2023-01-07T04:01:36.807Z,99.99
2023-01-07T04:02:37.034Z,99.99
2023-01-07T04:03:37.561Z,99.99
2023-01-07T04:04:37.839Z,99.99
2023-01-07T04:05:38.767Z,99.99
2023-01-07T04:06:39.697Z,99.99
2023-01-07T04:07:40.062Z,99.99
2023-01-07T04:08:41.032Z,99.99
2023-01-07T04:09:41.384Z,99.99
2023-01-07T04:10:42.033Z,99.99
2023-01-07T04:11:43.088Z,99.99
2023-01-07T04:12:42.991Z,99.99
2023-01-07T04:13:43.692Z,99.99
2023-01-07T04:14:44.344Z,99.99
2023-01-07T04:15:44.984Z,99.99
2023-01-07T04:16:45.983Z,99.99
2023-01-07T04:17:46.627Z,99.99
2023-01-07T04:18:46.821Z,99.99
2023-01-07T04:19:47.517Z,99.99
2023-01-07T04:20:47.860Z,99.99
2023-01-07T04:21:48.094Z,99.99
2023-01-07T04:22:49.026Z,99.99
2023-01-07T04:23:49.330Z,99.99
2023-01-07T04:24:49.657Z,99.99
2023-01-07T04:25:49.931Z,99.99
2023-01-07T04:26:50.230Z,99.99
2023-01-07T04:27:51.155Z,99.99
2023-01-07T04:28:51.371Z,99.99
2023-01-07T04:29:51.852Z,99.99
2023-01-07T04:30:52.214Z,99.99
2023-01-07T04:31:53.348Z,99.99
2023-01-07T04:32:53.407Z,99.99
2023-01-07T04:33:53.838Z,99.99
2023-01-07T04:34:53.855Z,99.99
2023-01-07T04:35:55.187Z,99.99
2023-01-07T04:36:55.683Z,99.99
2023-01-07T04:37:55.875Z,99.99
2023-01-07T04:38:56.076Z,99.99
2023-01-07T04:39:56.689Z,99.99
2023-01-07T04:40:56.596Z,99.99
2023-01-07T04:41:57.624Z,99.99
2023-01-07T04:42:58.553Z,99.99
2023-01-07T04:43:59.543Z,99.99
2023-01-07T04:45:00.496Z,99.99
2023-01-07T04:46:00.571Z,99.99
2023-01-07T04:47:00.951Z,99.99
2023-01-07T04:48:02.028Z,99.99
2023-01-07T04:49:02.267Z,99.99
2023-01-07T04:50:02.298Z,99.99
2023-01-07T04:51:03.631Z,99.99
2023-01-07T04:52:03.995Z,99.99
2023-01-07T04:53:04.624Z,99.99
2023-01-07T04:54:04.883Z,99.99
2023-01-07T04:55:04.934Z,99.99
2023-01-07T04:56:05.418Z,99.99
2023-01-07T04:57:05.757Z,99.99
2023-01-07T04:58:06.253Z,99.99
2023-01-07T04:59:07.162Z,99.99
2023-01-07T05:00:07.814Z,99.99
2023-01-07T05:01:08.538Z,99.99
2023-01-07T05:02:08.528Z,99.99
2023-01-07T05:03:09.064Z,99.99
2023-01-07T05:04:10.017Z,99.99
2023-01-07T05:05:10.005Z,99.99
2023-01-07T05:06:11.387Z,99.99
2023-01-07T05:07:11.887Z,99.99
2023-01-07T05:08:12.107Z,99.99
2023-01-07T05:09:12.726Z,99.99
2023-01-07T05:10:13.790Z,99.99
2023-01-07T05:11:13.989Z,99.99
2023-01-07T05:12:14.321Z,99.99
2023-01-07T05:13:14.580Z,99.99
2023-01-07T05:14:15.580Z,99.99
2023-01-07T05:15:15.795Z,99.99
2023-01-07T05:16:16.048Z,99.99
2023-01-07T05:17:16.638Z,99.99
2023-01-07T05:18:17.253Z,99.99
2023-01-07T05:19:17.462Z,99.99
2023-01-07T05:20:17.776Z,99.99
2023-01-07T05:21:18.156Z,99.99
2023-01-07T05:22:18.538Z,99.99
2023-01-07T05:23:19.762Z,99.99
2023-01-07T05:24:20.571Z,99.99
2023-01-07T05:25:20.888Z,99.99
2023-01-07T05:26:21.544Z,99.99
2023-01-07T05:27:21.920Z,99.99
2023-01-07T05:28:22.568Z,99.99
2023-01-07T05:29:23.808Z,99.99
2023-01-07T05:30:23.997Z,99.99
2023-01-07T05:31:24.809Z,99.99
2023-01-07T05:32:25.300Z,99.99
2023-01-07T05:33:25.612Z,99.99
2023-01-07T05:34:25.884Z,99.99
2023-01-07T05:35:26.243Z,99.99
2023-01-07T05:36:26.564Z,99.99
2023-01-07T05:37:27.059Z,99.99
2023-01-07T05:38:27.080Z,99.99
2023-01-07T05:39:27.739Z,99.99
2023-01-07T05:40:28.368Z,99.99
2023-01-07T05:41:28.568Z,99.99
2023-01-07T05:42:29.602Z,99.99
2023-01-07T05:43:30.808Z,99.99
2023-01-07T05:44:31.747Z,99.99
2023-01-07T05:45:31.984Z,99.99
2023-01-07T05:46:32.845Z,99.99
2023-01-07T05:47:33.908Z,99.99
2023-01-07T05:48:34.951Z,99.99
2023-01-07T05:49:34.886Z,99.99
2023-01-07T05:50:36.210Z,99.99
2023-01-07T05:51:36.832Z,99.99
2023-01-07T05:52:37.338Z,99.99
2023-01-07T05:53:37.255Z,99.99
2023-01-07T05:54:38.268Z,99.99
2023-01-07T05:55:39.036Z,99.99
2023-01-07T05:56:40.252Z,99.99
2023-01-07T05:57:40.589Z,99.99
2023-01-07T05:58:41.083Z,99.99
2023-01-07T05:59:41.324Z,99.99
2023-01-07T06:00:41.810Z,99.99
2023-01-07T06:01:42.507Z,99.99
2023-01-07T06:02:42.998Z,99.99
2023-01-07T06:03:43.435Z,99.99
2023-01-07T06:04:44.362Z,99.99
2023-01-07T06:05:45.009Z,99.99
2023-01-07T06:06:45.340Z,99.99
2023-01-07T06:07:45.576Z,99.99
2023-01-07T06:08:46.517Z,99.99
2023-01-07T06:09:47.437Z,99.99
2023-01-07T06:10:47.484Z,99.99
2023-01-07T06:11:48.412Z,99.99
2023-01-07T06:12:48.461Z,99.99
2023-01-07T06:13:49.779Z,99.99
2023-01-07T06:14:49.892Z,99.99
2023-01-07T06:15:50.669Z,99.99
2023-01-07T06:16:51.202Z,99.99
2023-01-07T06:17:52.145Z,99.99
2023-01-07T06:18:52.218Z,99.99
2023-01-07T06:19:52.710Z,99.99
2023-01-07T06:20:53.305Z,99.99
2023-01-07T06:21:53.922Z,99.99
2023-01-07T06:22:53.881Z,99.99
2023-01-07T06:23:54.527Z,99.99
2023-01-07T06:24:54.963Z,99.99
2023-01-07T06:25:55.573Z,99.99
2023-01-07T06:26:56.254Z,99.99
2023-01-07T06:27:56.862Z,99.99
2023-01-07T06:28:57.393Z,99.99
2023-01-07T06:29:57.894Z,99.99
2023-01-07T06:30:58.495Z,99.99
2023-01-07T06:31:58.534Z,99.99
2023-01-07T06:32:59.491Z,99.99
2023-01-07T06:34:00.542Z,99.99
2023-01-07T06:35:00.683Z,99.99
2023-01-07T06:36:01.760Z,99.99
2023-01-07T06:37:03.093Z,99.99
2023-01-07T06:38:03.578Z,99.99
2023-01-07T06:39:03.772Z,99.99
2023-01-07T06:40:03.977Z,99.99
2023-01-07T06:41:04.313Z,99.99
2023-01-07T06:42:04.983Z,99.99
2023-01-07T06:43:05.304Z,99.99
2023-01-07T06:44:06.259Z,99.99
2023-01-07T06:45:06.789Z,99.99
2023-01-07T06:46:06.839Z,99.99
2023-01-07T06:47:07.341Z,99.99
2023-01-07T06:48:07.531Z,99.99
2023-01-07T06:49:08.295Z,99.99
2023-01-07T06:50:09.228Z,99.99
2023-01-07T06:51:09.445Z,99.99
2023-01-07T06:52:10.474Z,99.99
2023-01-07T06:53:11.140Z,99.99
2023-01-07T06:54:11.060Z,99.99
2023-01-07T06:55:12.110Z,99.99
2023-01-07T06:56:12.887Z,99.99
2023-01-07T06:57:13.808Z,99.99
2023-01-07T06:58:14.427Z,99.99
2023-01-07T06:59:14.336Z,99.99
2023-01-07T07:00:15.539Z,99.99
2023-01-07T07:01:16.285Z,99.99
2023-01-07T07:02:17.083Z,99.99
2023-01-07T07:03:16.993Z,99.99
2023-01-07T07:04:17.227Z,99.99
2023-01-07T07:05:17.754Z,99.99
2023-01-07T07:06:18.076Z,99.99
2023-01-07T07:07:18.425Z,99.99
2023-01-07T07:08:19.074Z,99.99
2023-01-07T07:09:20.288Z,99.99
2023-01-07T07:10:21.215Z,99.99
2023-01-07T07:11:21.560Z,99.99
2023-01-07T07:12:21.820Z,99.99
2023-01-07T07:13:22.131Z,99.99
2023-01-07T07:14:22.338Z,99.99
2023-01-07T07:15:23.340Z,99.99
2023-01-07T07:16:24.203Z,99.99
2023-01-07T07:17:24.867Z,99.99
2023-01-07T07:18:25.798Z,99.99
2023-01-07T07:19:26.270Z,99.99
2023-01-07T07:20:27.462Z,99.99
2023-01-07T07:21:27.778Z,99.99
2023-01-07T07:22:28.555Z,99.99
2023-01-07T07:23:28.452Z,99.99
2023-01-07T07:24:29.667Z,99.99
2023-01-07T07:25:30.236Z,99.99
2023-01-07T07:26:30.483Z,99.99
2023-01-07T07:27:30.408Z,99.99
2023-01-07T07:28:31.656Z,99.99
2023-01-07T07:29:31.933Z,99.99
2023-01-07T07:30:51.327Z,99.99
2023-01-07T07:31:32.732Z,99.99
2023-01-07T07:32:33.555Z,99.99
2023-01-07T07:33:33.941Z,99.99
2023-01-07T07:34:36.041Z,99.99
2023-01-07T07:35:36.291Z,99.99
2023-01-07T07:36:36.102Z,99.99
2023-01-07T07:37:36.754Z,99.99
2023-01-07T07:38:37.283Z,99.99
2023-01-07T07:39:37.792Z,99.99
2023-01-07T07:40:37.996Z,99.99
2023-01-07T07:41:38.339Z,99.99
2023-01-07T07:43:16.808Z,99.99
2023-01-07T07:43:40.143Z,99.99
2023-01-07T07:44:40.047Z,99.99
2023-01-07T07:45:40.995Z,99.99
2023-01-07T07:46:42.283Z,99.99
2023-01-07T07:47:42.251Z,99.99
2023-01-07T07:48:42.187Z,99.99
2023-01-07T07:49:43.281Z,99.99
2023-01-07T07:50:43.524Z,99.99
2023-01-07T07:51:43.908Z,99.99
2023-01-07T07:52:44.243Z,99.99
2023-01-07T07:53:44.459Z,99.99
2023-01-07T07:54:44.958Z,99.99
2023-01-07T07:55:57.180Z,99.99
2023-01-07T07:56:57.518Z,99.99
2023-01-07T07:57:57.737Z,99.99
2023-01-07T07:58:57.589Z,99.99
2023-01-07T07:59:58.014Z,99.99
2023-01-07T08:00:58.719Z,99.99
2023-01-07T08:01:58.961Z,99.99
2023-01-07T08:02:59.573Z,99.99
2023-01-07T08:04:00.151Z,99.99
2023-01-07T08:05:00.847Z,99.99
2023-01-07T08:06:01.408Z,99.99
2023-01-07T08:07:01.730Z,99.99
2023-01-07T08:08:02.805Z,99.99
2023-01-07T08:09:03.030Z,99.99
2023-01-07T08:10:03.694Z,99.99
2023-01-07T08:11:03.945Z,99.99
2023-01-07T08:12:04.643Z,99.99
2023-01-07T08:13:04.621Z,99.99
2023-01-07T08:14:05.599Z,99.26
2023-01-07T08:15:05.663Z,99.63
2023-01-07T08:16:06.956Z,99.16
2023-01-07T08:17:07.269Z,98.59
2023-01-07T08:18:07.908Z,98.3
2023-01-07T08:19:08.128Z,98.97
2023-01-07T08:20:08.565Z,98.3
2023-01-07T08:21:08.773Z,98.78
2023-01-07T08:22:09.859Z,98.78
2023-01-07T08:23:10.182Z,99.54
2023-01-07T08:24:12.462Z,99.99
2023-01-07T08:25:10.416Z,99.99
2023-01-07T08:26:11.493Z,99.99
2023-01-07T08:27:11.869Z,99.99
2023-01-07T08:28:12.365Z,99.99
2023-01-07T08:29:12.584Z,99.99
2023-01-07T08:30:13.205Z,99.99
2023-01-07T08:31:14.305Z,99.99
2023-01-07T08:32:14.745Z,99.63
2023-01-07T08:33:15.259Z,99.35
2023-01-07T08:34:15.208Z,98.87
2023-01-07T08:35:15.854Z,98.59
2023-01-07T08:36:27.764Z,98.49
2023-01-07T08:37:16.364Z,97.55
2023-01-07T08:38:17.414Z,97.26
2023-01-07T08:39:17.917Z,96.88
2023-01-07T08:40:18.127Z,97.55
2023-01-07T08:41:18.793Z,97.55
2023-01-07T08:42:19.142Z,97.55
2023-01-07T08:43:19.358Z,97.36
2023-01-07T08:44:19.629Z,98.49
2023-01-07T08:45:19.954Z,99.26
2023-01-07T08:46:20.711Z,99.16
2023-01-07T08:47:21.171Z,99.16
2023-01-07T08:48:21.811Z,98.78
2023-01-07T08:49:21.765Z,97.55
2023-01-07T08:50:23.101Z,96.55
2023-01-07T08:51:23.622Z,95.22
2023-01-07T08:52:24.553Z,93.8
2023-01-07T08:53:25.011Z,93.13
2023-01-07T08:54:25.959Z,92.71
2023-01-07T08:55:26.163Z,92.09
2023-01-07T08:56:26.735Z,91.99
2023-01-07T08:57:26.775Z,92.47
2023-01-07T08:58:28.006Z,93.23
2023-01-07T08:59:28.947Z,92.9
2023-01-07T09:00:29.648Z,91.47
2023-01-07T09:01:29.778Z,90.61
2023-01-07T09:02:30.777Z,89.67
2023-01-07T09:03:31.194Z,89.86
2023-01-07T09:04:31.960Z,90.47
2023-01-07T09:05:35.176Z,89.8
2023-01-07T09:06:33.834Z,89.42
2023-01-07T09:07:34.040Z,89.04
2023-01-07T09:08:34.705Z,87.9
2023-01-07T09:09:34.935Z,87.05
2023-01-07T09:10:34.943Z,87.1
2023-01-07T09:11:36.187Z,88.05
2023-01-07T09:12:36.300Z,88.05
2023-01-07T09:13:37.228Z,88.24
2023-01-07T09:14:37.129Z,87.95
2023-01-07T09:15:38.204Z,87.67
2023-01-07T09:16:39.104Z,87.86
2023-01-07T09:17:38.911Z,89
2023-01-07T09:18:39.561Z,90.99
2023-01-07T09:19:40.523Z,89.86
2023-01-07T09:20:41.006Z,88.34
2023-01-07T09:21:41.249Z,88.85
2023-01-07T09:22:42.179Z,89.23
2023-01-07T09:23:42.959Z,88.67
2023-01-07T09:24:42.883Z,87.71
2023-01-07T09:25:43.548Z,86.95
2023-01-07T09:26:44.822Z,86
2023-01-07T09:27:45.161Z,85.72
2023-01-07T09:28:45.723Z,86.29
2023-01-07T09:29:46.228Z,85.81
2023-01-07T09:30:46.563Z,86
2023-01-07T09:31:46.895Z,86.57
2023-01-07T09:32:47.313Z,86.71
2023-01-07T09:33:48.273Z,86.24
2023-01-07T09:34:48.192Z,85.71
2023-01-07T09:35:48.821Z,85.04
2023-01-07T09:36:49.106Z,84.28
2023-01-07T09:37:50.039Z,83.33
2023-01-07T09:38:50.802Z,82.48
2023-01-07T09:39:51.166Z,82.09
2023-01-07T09:40:52.256Z,82.42
2023-01-07T09:41:52.737Z,83.33
2023-01-07T09:42:53.793Z,83.33
2023-01-07T09:44:06.751Z,83.47
2023-01-07T09:44:55.134Z,82.9
2023-01-07T09:45:56.110Z,82.23
2023-01-07T09:46:56.381Z,81.56
2023-01-07T09:47:57.028Z,81.98
2023-01-07T09:48:58.134Z,81.6
2023-01-07T09:49:58.445Z,81.41
2023-01-07T09:50:58.793Z,80.18
2023-01-07T09:51:59.017Z,78.75
2023-01-07T09:52:59.229Z,78.78
2023-01-07T09:54:00.401Z,78.12
2023-01-07T09:55:01.055Z,78.25
2023-01-07T09:56:17.645Z,76.73
2023-01-07T09:57:05.701Z,77.01
2023-01-07T09:58:06.038Z,77.36
2023-01-07T09:59:05.973Z,76.21
2023-01-07T10:00:06.699Z,76.35
2023-01-07T10:01:07.206Z,77.11
2023-01-07T10:02:07.588Z,76.44
2023-01-07T10:03:07.877Z,75.24
2023-01-07T10:04:07.969Z,74.57
2023-01-07T10:05:08.214Z,74.77
2023-01-07T10:06:08.570Z,74.61
2023-01-07T10:07:09.041Z,73.56
2023-01-07T10:08:35.676Z,71.75
2023-01-07T10:09:10.142Z,71.18
2023-01-07T10:10:10.354Z,71.37
2023-01-07T10:11:10.873Z,72.42
2023-01-07T10:12:11.155Z,73.43
2023-01-07T10:13:11.764Z,73.91
2023-01-07T10:14:12.693Z,74.19
2023-01-07T10:15:13.219Z,74.77
2023-01-07T10:16:14.041Z,75.34
2023-01-07T10:17:14.279Z,75.91
2023-01-07T10:18:16.083Z,76.2
2023-01-07T10:19:15.318Z,75.34
2023-01-07T10:20:15.838Z,74.1
2023-01-07T10:21:16.435Z,73.47
2023-01-07T10:22:17.386Z,73.18
2023-01-07T10:23:17.891Z,72.55
2023-01-07T10:24:21.050Z,72.45
2023-01-07T10:25:19.077Z,71.53
2023-01-07T10:26:19.731Z,70.87
2023-01-07T10:27:19.966Z,70.61
2023-01-07T10:28:20.106Z,70.61
2023-01-07T10:29:20.317Z,69.6
2023-01-07T10:30:21.036Z,68.64
2023-01-07T10:31:21.506Z,68.16
2023-01-07T10:32:22.313Z,67.53
2023-01-07T10:33:23.267Z,67.43
2023-01-07T10:34:23.506Z,68.2
2023-01-07T10:35:23.446Z,67.34
2023-01-07T10:36:24.227Z,67.53
2023-01-07T10:37:24.568Z,66.96
2023-01-07T10:38:25.511Z,66.8
2023-01-07T10:39:25.844Z,66.8
2023-01-07T10:40:25.898Z,65.94
2023-01-07T10:41:25.825Z,64.79
2023-01-07T10:42:26.374Z,65.01
2023-01-07T10:43:26.455Z,64.92
2023-01-07T10:44:27.678Z,65.01
2023-01-07T10:45:27.986Z,65.3
2023-01-07T10:46:29.273Z,65.14
2023-01-07T10:47:29.970Z,64.66
2023-01-07T10:48:31.179Z,63.7
2023-01-07T10:49:31.278Z,61.5
2023-01-07T10:50:32.334Z,61.02
2023-01-07T10:51:32.394Z,62.26
2023-01-07T10:52:33.346Z,63.42
2023-01-07T10:53:33.559Z,62.84
2023-01-07T10:54:33.878Z,62.87
2023-01-07T10:55:34.562Z,62.59
2023-01-07T10:56:36.756Z,62.23
2023-01-07T10:57:35.359Z,62.52
2023-01-07T10:58:35.695Z,61.08
2023-01-07T10:59:36.934Z,60.89
2023-01-07T11:00:37.320Z,60.6
2023-01-07T11:01:38.367Z,60.79
2023-01-07T11:02:38.933Z,60.41
2023-01-07T11:03:39.402Z,60.79
2023-01-07T11:04:39.906Z,60.7
2023-01-07T11:05:39.839Z,60.03
2023-01-07T11:06:40.482Z,60.09
2023-01-07T11:07:41.010Z,60.57
2023-01-07T11:08:41.516Z,61.05
2023-01-07T11:09:42.154Z,61.05
2023-01-07T11:10:42.558Z,61.02
2023-01-07T11:11:43.232Z,60.73
2023-01-07T11:12:44.471Z,59.87
2023-01-07T11:13:45.118Z,60.25
2023-01-07T11:14:45.066Z,60.73
2023-01-07T11:15:45.449Z,60.93
2023-01-07T11:16:46.181Z,61.69
2023-01-07T11:17:47.068Z,61.5
2023-01-07T11:18:47.278Z,60.03
2023-01-07T11:19:48.233Z,59.48
2023-01-07T11:20:49.231Z,58.72
2023-01-07T11:21:50.431Z,60.32
2023-01-07T11:22:50.084Z,60.61
2023-01-07T11:23:50.021Z,60.7
2023-01-07T11:24:51.077Z,60.67
2023-01-07T11:25:51.161Z,61.72
2023-01-07T11:26:52.150Z,62.65
2023-01-07T11:27:52.985Z,63.32
2023-01-07T11:28:53.363Z,62.94
2023-01-07T11:29:55.007Z,62.81
2023-01-07T11:30:53.808Z,62.33
2023-01-07T11:31:55.350Z,63.64
2023-01-07T11:32:55.567Z,64.88
2023-01-07T11:34:09.167Z,65.3
2023-01-07T11:34:56.797Z,65.74
2023-01-07T11:35:57.479Z,64.78
2023-01-07T11:36:58.111Z,64.69
2023-01-07T11:37:58.144Z,65.26
2023-01-07T11:38:59.394Z,65.93
2023-01-07T11:40:00.026Z,66.89
2023-01-07T11:41:00.790Z,67.65
2023-01-07T11:42:01.469Z,68.41
2023-01-07T11:43:01.700Z,69.62
2023-01-07T11:44:02.054Z,70.58
2023-01-07T11:45:02.298Z,69.91
2023-01-07T11:46:27.026Z,69.62
2023-01-07T11:47:04.499Z,69.82
2023-01-07T11:48:04.775Z,69.53
2023-01-07T11:49:05.199Z,69.72
2023-01-07T11:50:05.701Z,71.15
2023-01-07T11:51:06.673Z,71.25
2023-01-07T11:52:07.015Z,71.63
2023-01-07T11:53:07.966Z,71.82
2023-01-07T11:54:08.182Z,71.82
2023-01-07T11:55:08.978Z,71.92
2023-01-07T11:56:09.325Z,71.25
2023-01-07T11:57:10.272Z,70.1
2023-01-07T11:58:35.794Z,69.91
2023-01-07T11:59:11.135Z,70.67
2023-01-07T12:00:11.373Z,71.34
2023-01-07T12:01:11.925Z,71.06
2023-01-07T12:02:14.117Z,71.25
2023-01-07T12:03:13.976Z,71.15
2023-01-07T12:04:14.327Z,71.15
2023-01-07T12:05:14.585Z,71.53
2023-01-07T12:06:14.800Z,71.06
2023-01-07T12:07:16.163Z,71.06
2023-01-07T12:08:16.419Z,70.58
2023-01-07T12:09:17.067Z,70.29
2023-01-07T12:10:18.141Z,70.92
2023-01-07T12:11:18.800Z,71.02
2023-01-07T12:12:19.750Z,71.41
2023-01-07T12:13:20.684Z,72.3
2023-01-07T12:14:21.409Z,73.25
2023-01-07T12:15:22.760Z,73.54
2023-01-07T12:16:23.396Z,74.21
2023-01-07T12:17:23.704Z,74.59
2023-01-07T12:18:24.841Z,74.02
2023-01-07T12:19:25.077Z,74.69
2023-01-07T12:20:25.612Z,74.73
2023-01-07T12:21:25.839Z,74.34
2023-01-07T12:22:26.169Z,73.58
2023-01-07T12:23:26.426Z,73.23
2023-01-07T12:24:26.953Z,73.33
2023-01-07T12:25:28.029Z,71.7
2023-01-07T12:26:27.943Z,71.22
2023-01-07T12:27:28.291Z,69.98
2023-01-07T12:28:28.822Z,69.15
2023-01-07T12:29:29.769Z,67.91
2023-01-07T12:30:29.944Z,67.24
2023-01-07T12:31:30.221Z,67.63
2023-01-07T12:32:30.640Z,67.34
2023-01-07T12:33:31.701Z,67.05
2023-01-07T12:34:32.338Z,67.59
2023-01-07T12:35:33.277Z,67.3
2023-01-07T12:36:33.530Z,68.93
2023-01-07T12:37:36.580Z,69.89
2023-01-07T12:38:35.676Z,69.12
2023-01-07T12:39:35.921Z,68.16
2023-01-07T12:40:36.699Z,68.74
2023-01-07T12:41:37.325Z,70.17
2023-01-07T12:42:37.297Z,70.84
2023-01-07T12:43:38.549Z,70.46
2023-01-07T12:44:39.505Z,70.4
2023-01-07T12:45:39.837Z,69.54
2023-01-07T12:46:40.748Z,70.11
2023-01-07T12:47:41.220Z,69.73
2023-01-07T12:48:41.623Z,70.11
2023-01-07T12:49:42.847Z,69.82
2023-01-07T12:50:43.813Z,70.11
2023-01-07T12:51:44.802Z,69.25
2023-01-07T12:52:45.585Z,69.82
2023-01-07T12:53:46.094Z,70.01
2023-01-07T12:54:46.190Z,69.89
2023-01-07T12:55:47.162Z,70.84
2023-01-07T12:56:47.510Z,70.65
2023-01-07T12:57:48.522Z,71.89
2023-01-07T12:58:48.809Z,70.33
2023-01-07T12:59:53.104Z,71.19
2023-01-07T13:00:49.584Z,71.38